Time;durP1;ratioP1;P1;durP2;ratioP2;P2;SDS_P1;SDS_P2;PMS_P1;PMS_P2;Temp;Humidity;BMP_temperature;BMP_pressure;BME280_temperature;BME280_humidity;BME280_pressure;Samples;Min_cycle;Max_cycle;Signal;HPM_P1;HPM_P2
2021/01/21 00:01:24;;;;;;;2.77;1.80;;;;;;;8.31;60.31;98455.22;4986060;28;20667;-78
2021/01/21 00:03:50;;;;;;;1.33;1.10;;;;;;;8.29;60.08;98464.00;4990048;28;20288;-78
2021/01/21 00:06:16;;;;;;;1.57;1.10;;;;;;;8.29;59.68;98457.06;4992205;28;20750;-79
2021/01/21 00:08:42;;;;;;;2.67;1.43;;;;;;;8.35;59.95;98446.41;4985585;28;20786;-78
2021/01/21 00:11:08;;;;;;;2.07;1.27;;;;;;;8.38;60.96;98444.59;4987123;28;20226;-78
2021/01/21 00:13:34;;;;;;;2.63;1.27;;;;;;;8.34;60.51;98436.94;4988024;28;20221;-77
2021/01/21 00:16:01;;;;;;;1.57;1.20;;;;;;;8.33;60.11;98429.19;4986526;28;20270;-78
2021/01/21 00:18:27;;;;;;;1.97;1.20;;;;;;;8.33;60.17;98427.41;4990280;28;20296;-78
2021/01/21 00:20:53;;;;;;;2.33;1.40;;;;;;;8.34;61.31;98417.88;4986873;28;20567;-79
2021/01/21 00:23:19;;;;;;;1.73;1.33;;;;;;;8.32;60.38;98437.88;4987947;28;20558;-78
2021/01/21 00:25:46;;;;;;;2.33;1.47;;;;;;;8.40;60.22;98440.16;4987154;28;20273;-78
2021/01/21 00:28:12;;;;;;;2.03;1.03;;;;;;;8.43;60.06;98419.28;4986390;28;20224;-78
2021/01/21 00:30:38;;;;;;;2.10;1.30;;;;;;;8.43;60.10;98435.72;4987139;28;20291;-79
2021/01/21 00:33:05;;;;;;;1.30;1.10;;;;;;;8.48;59.21;98438.97;4984761;28;20210;-79
2021/01/21 00:35:31;;;;;;;3.53;1.30;;;;;;;8.50;59.25;98436.28;4987249;28;20213;-78
2021/01/21 00:37:57;;;;;;;2.03;1.10;;;;;;;8.52;58.83;98439.66;4988283;28;20303;-79
2021/01/21 00:40:22;;;;;;;1.60;1.20;;;;;;;8.52;58.78;98437.94;4990918;28;20205;-78
2021/01/21 00:42:48;;;;;;;1.87;1.23;;;;;;;8.54;58.29;98430.91;4983030;28;20916;-78
2021/01/21 00:45:14;;;;;;;2.67;1.60;;;;;;;8.58;59.77;98420.34;4988817;28;20197;-78
2021/01/21 00:47:40;;;;;;;1.83;1.20;;;;;;;8.55;59.15;98424.78;4983148;28;20275;-78
2021/01/21 00:50:08;;;;;;;2.07;1.20;;;;;;;8.57;59.49;98411.72;4986452;28;20242;-78
2021/01/21 00:52:34;;;;;;;4.00;1.40;;;;;;;8.57;59.22;98411.72;4981553;28;20225;-78
2021/01/21 00:55:00;;;;;;;1.30;1.10;;;;;;;8.56;60.27;98402.22;4988322;28;20635;-79
2021/01/21 00:57:25;;;;;;;1.80;1.37;;;;;;;8.55;59.68;98406.56;4979596;28;20269;-78
2021/01/21 00:59:51;;;;;;;1.73;1.30;;;;;;;8.59;59.50;98409.06;4988032;28;20418;-78
2021/01/21 01:02:17;;;;;;;2.60;1.20;;;;;;;8.60;58.73;98401.16;4981321;28;20203;-78
2021/01/21 01:04:43;;;;;;;2.63;1.30;;;;;;;8.53;60.08;98397.16;4987992;28;20304;-78
2021/01/21 01:07:09;;;;;;;2.63;1.47;;;;;;;8.47;59.98;98402.63;4985051;28;20203;-78
2021/01/21 01:09:35;;;;;;;1.50;1.20;;;;;;;8.43;59.95;98385.47;4983381;28;20228;-78
2021/01/21 01:12:01;;;;;;;2.13;1.30;;;;;;;8.39;60.56;98394.28;4983060;28;20231;-79
2021/01/21 01:14:27;;;;;;;5.27;1.83;;;;;;;8.38;60.35;98371.78;4979950;28;20211;-79
2021/01/21 01:16:53;;;;;;;1.63;1.40;;;;;;;8.39;59.87;98378.69;4976385;28;20689;-78
2021/01/21 01:19:19;;;;;;;1.40;0.97;;;;;;;8.38;61.17;98382.19;4981794;28;20273;-78
2021/01/21 01:21:45;;;;;;;2.67;1.50;;;;;;;8.33;60.99;98375.44;4977243;28;20334;-78
2021/01/21 01:24:13;;;;;;;1.83;1.33;;;;;;;8.33;60.51;98374.59;4982098;28;20211;-78
2021/01/21 01:26:38;;;;;;;1.73;1.23;;;;;;;8.32;60.01;98360.75;4977655;28;20291;-78
2021/01/21 01:29:04;;;;;;;1.50;1.13;;;;;;;8.38;60.54;98348.41;4983534;28;20246;-78
2021/01/21 01:31:30;;;;;;;2.17;1.60;;;;;;;8.29;60.47;98354.84;4980928;28;20233;-79
2021/01/21 01:33:56;;;;;;;1.40;1.00;;;;;;;8.30;60.97;98336.56;4991123;28;20268;-79
2021/01/21 01:36:22;;;;;;;1.13;1.00;;;;;;;8.31;60.38;98333.06;4980395;28;20583;-79
2021/01/21 01:38:48;;;;;;;2.03;1.20;;;;;;;8.35;60.92;98321.63;4984013;28;20258;-78
2021/01/21 01:41:14;;;;;;;2.57;1.30;;;;;;;8.28;60.73;98312.41;4980329;28;20230;-78
2021/01/21 01:43:40;;;;;;;2.83;1.40;;;;;;;8.24;61.91;98302.22;4982081;28;20234;-79
2021/01/21 01:46:07;;;;;;;3.50;1.50;;;;;;;8.29;61.05;98295.91;4980683;28;20819;-78
2021/01/21 01:48:33;;;;;;;3.13;1.10;;;;;;;8.27;61.25;98292.53;4990146;28;20242;-79
2021/01/21 01:50:59;;;;;;;1.87;1.20;;;;;;;8.34;60.06;98291.34;4981170;28;20221;-78
2021/01/21 01:53:28;;;;;;;3.10;1.17;;;;;;;8.40;60.70;98300.63;4982557;28;20208;-78
2021/01/21 01:55:55;;;;;;;2.07;1.07;;;;;;;8.46;60.21;98286.53;4982398;28;20201;-78
2021/01/21 01:58:22;;;;;;;2.13;1.23;;;;;;;8.50;59.52;98283.75;4982636;28;20643;-78
2021/01/21 02:00:53;;;;;;;2.97;1.10;;;;;;;8.70;58.63;98277.63;4986572;28;20194;-78
2021/01/21 02:03:19;;;;;;;1.40;1.20;;;;;;;8.74;58.88;98273.97;4985890;28;20210;-78
2021/01/21 02:05:45;;;;;;;2.27;1.00;;;;;;;8.81;59.40;98271.09;4982836;28;20198;-78
2021/01/21 02:08:11;;;;;;;1.63;1.20;;;;;;;8.87;58.39;98258.63;4987120;28;20959;-78
2021/01/21 02:10:37;;;;;;;2.07;1.30;;;;;;;8.94;57.71;98259.19;4985038;28;20204;-79
2021/01/21 02:13:36;;;;;;;1.83;1.00;;;;;;;9.01;58.38;98244.94;4981287;28;20613;-78
2021/01/21 02:16:17;;;;;;;1.73;1.00;;;;;;;9.13;57.26;98222.69;4987078;28;20235;-78
2021/01/21 02:18:52;;;;;;;1.20;1.00;;;;;;;9.16;56.92;98209.56;4993113;28;20241;-78
2021/01/21 02:21:47;;;;;;;1.53;1.13;;;;;;;9.18;57.25;98209.44;4974904;28;20249;-78
2021/01/21 02:24:54;;;;;;;1.63;1.00;;;;;;;9.21;57.62;98211.91;4983504;28;20207;-78
2021/01/21 02:27:22;;;;;;;1.20;1.10;;;;;;;9.20;57.41;98195.47;4981984;28;20217;-78
2021/01/21 02:29:49;;;;;;;1.93;1.27;;;;;;;9.20;57.53;98190.25;4990078;28;20217;-78
2021/01/21 02:32:37;;;;;;;2.67;1.10;;;;;;;9.20;57.19;98195.47;4980538;28;20265;-78
2021/01/21 02:35:08;;;;;;;0.83;0.83;;;;;;;9.25;57.35;98182.22;4992892;28;20269;-79
2021/01/21 02:37:36;;;;;;;2.00;1.17;;;;;;;9.28;56.69;98143.84;4984581;28;20715;-78
2021/01/21 02:40:05;;;;;;;1.93;0.70;;;;;;;9.36;56.01;98145.25;4992805;28;20552;-79
2021/01/21 02:42:43;;;;;;;2.13;1.40;;;;;;;9.38;55.96;98139.03;4979728;28;20211;-79
2021/01/21 02:45:11;;;;;;;3.20;1.20;;;;;;;9.36;55.81;98129.63;4990952;28;20202;-78
2021/01/21 02:47:37;;;;;;;2.10;1.03;;;;;;;9.43;55.88;98121.38;4980295;28;20219;-78
2021/01/21 02:50:03;;;;;;;1.50;0.87;;;;;;;9.43;55.35;98133.56;4991342;28;20598;-79
2021/01/21 02:52:34;;;;;;;1.50;1.10;;;;;;;9.40;55.62;98103.34;4979982;28;20229;-79
2021/01/21 02:55:13;;;;;;;2.97;1.33;;;;;;;9.39;55.34;98117.25;4991989;28;20209;-78
2021/01/21 02:57:43;;;;;;;2.17;1.30;;;;;;;9.47;55.31;98111.66;4979931;28;20211;-79
2021/01/21 03:00:11;;;;;;;1.37;1.27;;;;;;;9.52;55.85;98091.44;4991878;28;20255;-79
2021/01/21 03:02:43;;;;;;;1.10;0.97;;;;;;;9.46;55.26;98097.81;4985427;28;20572;-78
2021/01/21 03:05:12;;;;;;;2.93;1.17;;;;;;;9.47;55.57;98091.66;4992587;28;20224;-78
2021/01/21 03:07:40;;;;;;;1.67;0.93;;;;;;;9.50;54.55;98078.50;4987960;28;20207;-79
2021/01/21 03:10:07;;;;;;;1.70;1.10;;;;;;;9.47;54.47;98083.84;4991797;28;20588;-79
2021/01/21 03:12:33;;;;;;;2.77;1.00;;;;;;;9.56;54.58;98073.91;4975283;28;20224;-78
2021/01/21 03:15:00;;;;;;;1.50;1.00;;;;;;;9.53;55.34;98077.47;4983840;28;20269;-78
2021/01/21 03:17:27;;;;;;;2.27;1.10;;;;;;;9.52;54.46;98089.66;4986951;28;20209;-78
2021/01/21 03:19:53;;;;;;;3.07;1.03;;;;;;;9.47;54.99;98077.81;4984344;28;20217;-79
2021/01/21 03:22:20;;;;;;;1.10;0.90;;;;;;;9.46;54.50;98074.38;4999900;28;20213;-78
2021/01/21 03:24:46;;;;;;;1.07;0.87;;;;;;;9.42;54.16;98056.41;4988409;28;20253;-78
2021/01/21 03:27:12;;;;;;;3.53;1.20;;;;;;;9.38;55.09;98055.72;4987158;28;20215;-78
2021/01/21 03:29:38;;;;;;;2.27;1.07;;;;;;;9.39;54.65;98041.75;4992391;28;20235;-78
2021/01/21 03:32:05;;;;;;;3.60;1.30;;;;;;;9.44;53.80;98041.53;4992375;28;20228;-78
2021/01/21 03:34:32;;;;;;;1.10;1.00;;;;;;;9.42;54.60;98049.41;4996309;28;20233;-78
2021/01/21 03:36:57;;;;;;;1.80;1.20;;;;;;;9.36;54.58;98048.91;4986156;28;20215;-78
2021/01/21 03:39:23;;;;;;;2.47;1.00;;;;;;;9.38;54.14;98027.06;4988710;28;20233;-79
2021/01/21 03:41:51;;;;;;;1.27;1.03;;;;;;;9.41;54.97;98045.13;4984404;28;20230;-79
2021/01/21 03:44:17;;;;;;;1.83;0.90;;;;;;;9.40;54.24;98017.41;4988268;28;20221;-79
2021/01/21 03:46:43;;;;;;;1.30;1.13;;;;;;;9.41;53.52;98033.88;4985387;28;20207;-78
2021/01/21 03:49:09;;;;;;;1.47;1.10;;;;;;;9.42;54.29;98038.16;4983490;28;20230;-78
2021/01/21 03:51:35;;;;;;;1.97;1.20;;;;;;;9.44;54.90;98018.09;4975386;28;20698;-79
2021/01/21 03:54:01;;;;;;;2.00;1.07;;;;;;;9.38;54.86;97995.00;4977397;28;20204;-78
2021/01/21 03:56:28;;;;;;;1.10;1.00;;;;;;;9.38;54.55;98024.47;4976271;28;20207;-78
2021/01/21 03:58:54;;;;;;;1.00;0.90;;;;;;;9.40;54.18;98027.81;4983020;28;20762;-78
2021/01/21 04:01:20;;;;;;;1.63;0.87;;;;;;;9.32;53.93;98015.22;4976412;28;20204;-79
2021/01/21 04:03:46;;;;;;;1.47;0.93;;;;;;;9.33;54.27;98011.66;4983264;28;20210;-78
2021/01/21 04:06:12;;;;;;;1.20;1.10;;;;;;;9.32;54.27;98011.78;4980383;28;20210;-78
2021/01/21 04:08:38;;;;;;;1.57;0.90;;;;;;;9.32;54.61;98009.19;4979098;28;20325;-78
2021/01/21 04:11:04;;;;;;;1.07;1.07;;;;;;;9.32;54.59;97999.59;4978764;28;20715;-78
2021/01/21 04:13:30;;;;;;;3.07;1.43;;;;;;;9.32;54.14;97983.13;4979737;28;20223;-78
2021/01/21 04:15:56;;;;;;;1.73;1.53;;;;;;;9.34;53.93;97989.09;4979197;28;20197;-78
2021/01/21 04:18:22;;;;;;;2.33;1.10;;;;;;;9.36;53.13;97997.66;4979573;28;20739;-78
2021/01/21 04:20:48;;;;;;;1.80;1.20;;;;;;;9.36;53.22;97971.63;4984266;28;20204;-78
2021/01/21 04:23:14;;;;;;;0.90;0.90;;;;;;;9.31;54.75;97960.63;4989030;28;20210;-79
2021/01/21 04:25:40;;;;;;;1.37;1.10;;;;;;;9.27;54.22;97961.72;4980427;28;20206;-78
2021/01/21 04:28:06;;;;;;;2.60;1.10;;;;;;;9.23;54.05;97950.63;4982768;28;20256;-79
2021/01/21 04:30:32;;;;;;;2.10;1.00;;;;;;;9.21;53.26;97952.47;4985133;28;20342;-78
2021/01/21 04:32:59;;;;;;;1.30;1.00;;;;;;;9.23;53.31;97935.00;4982951;28;20751;-78
2021/01/21 04:35:24;;;;;;;1.10;1.00;;;;;;;9.22;53.64;97976.75;4990063;28;20611;-78
2021/01/21 04:37:51;;;;;;;0.80;0.80;;;;;;;9.43;52.24;97938.28;4984292;28;20236;-78
2021/01/21 04:40:16;;;;;;;1.30;1.03;;;;;;;9.45;52.22;97942.47;4985549;28;20211;-78
2021/01/21 04:42:42;;;;;;;1.43;1.07;;;;;;;9.47;53.02;97961.47;4985240;28;20569;-78
2021/01/21 04:45:09;;;;;;;1.30;1.10;;;;;;;9.40;53.17;97933.25;4988470;28;20246;-78
2021/01/21 04:47:36;;;;;;;1.00;0.80;;;;;;;9.30;52.69;97946.78;4979348;28;20196;-78
2021/01/21 04:50:03;;;;;;;1.23;1.00;;;;;;;9.31;52.65;97931.97;4988911;28;20204;-78
2021/01/21 04:52:35;;;;;;;1.03;0.97;;;;;;;9.27;53.33;97941.72;4986742;28;20224;-78
2021/01/21 04:55:06;;;;;;;2.83;0.90;;;;;;;9.39;51.71;97941.97;4989730;28;20215;-78
2021/01/21 04:57:41;;;;;;;1.83;1.30;;;;;;;9.38;52.65;97937.72;4979916;28;20204;-78
2021/01/21 05:00:09;;;;;;;1.63;1.00;;;;;;;9.34;53.01;97935.25;4987091;28;20251;-78
2021/01/21 05:02:38;;;;;;;1.17;1.07;;;;;;;9.26;52.77;97926.22;4978413;28;20202;-78
2021/01/21 05:05:06;;;;;;;1.57;0.90;;;;;;;9.21;52.79;97928.19;4992223;28;20203;-78
2021/01/21 05:07:33;;;;;;;1.73;1.03;;;;;;;9.21;53.30;97939.44;4982785;28;20218;-78
2021/01/21 05:10:00;;;;;;;1.33;0.93;;;;;;;9.19;52.67;97923.06;4988498;28;20207;-78
2021/01/21 05:12:26;;;;;;;1.87;1.10;;;;;;;9.20;53.31;97911.75;4984663;28;20229;-78
2021/01/21 05:14:52;;;;;;;1.50;1.03;;;;;;;9.19;53.25;97920.47;4989138;28;20294;-78
2021/01/21 05:17:18;;;;;;;1.33;1.03;;;;;;;9.18;53.36;97949.19;4981075;28;20210;-78
2021/01/21 05:19:45;;;;;;;2.00;0.90;;;;;;;9.18;53.75;97933.56;4989011;28;20235;-78
2021/01/21 05:22:14;;;;;;;1.70;0.80;;;;;;;9.20;52.45;97937.78;4981566;28;20195;-78
2021/01/21 05:24:40;;;;;;;1.27;1.13;;;;;;;9.22;52.71;97945.50;4989181;28;20232;-78
2021/01/21 05:27:06;;;;;;;1.00;0.90;;;;;;;9.18;52.96;97943.97;4986023;28;20203;-78
2021/01/21 05:29:32;;;;;;;2.13;1.00;;;;;;;9.23;52.66;97945.41;4992123;28;20269;-78
2021/01/21 05:31:59;;;;;;;2.07;1.03;;;;;;;9.27;52.05;97939.13;4981474;28;20259;-78
2021/01/21 05:34:25;;;;;;;1.33;1.00;;;;;;;9.29;52.69;97933.84;4991404;28;20691;-77
2021/01/21 05:36:51;;;;;;;2.03;0.93;;;;;;;9.34;52.77;97934.44;4987908;28;20206;-78
2021/01/21 05:39:18;;;;;;;1.77;1.03;;;;;;;9.32;52.37;97937.13;4987531;28;20227;-78
2021/01/21 05:41:44;;;;;;;2.40;1.03;;;;;;;9.30;53.33;97931.16;4991113;28;20889;-77
2021/01/21 05:44:10;;;;;;;0.70;0.70;;;;;;;9.26;53.97;97921.84;4986868;28;20204;-78
2021/01/21 05:46:36;;;;;;;1.03;0.93;;;;;;;9.33;53.58;97928.38;4984459;28;20203;-78
2021/01/21 05:49:02;;;;;;;1.37;1.00;;;;;;;9.37;53.33;97921.22;4984600;28;20226;-77
2021/01/21 05:51:29;;;;;;;0.80;0.80;;;;;;;9.40;52.37;97926.28;4981478;28;20230;-78
2021/01/21 05:53:56;;;;;;;1.43;0.80;;;;;;;9.40;53.64;97933.25;4993168;28;20222;-78
2021/01/21 05:56:25;;;;;;;1.80;0.90;;;;;;;9.41;53.41;97906.28;4987057;28;20207;-77
2021/01/21 05:58:53;;;;;;;0.77;0.77;;;;;;;9.48;52.93;97924.09;4985910;28;20256;-78
2021/01/21 06:01:20;;;;;;;1.57;1.00;;;;;;;9.53;53.49;97921.22;4981857;28;20210;-77
2021/01/21 06:03:47;;;;;;;1.00;0.90;;;;;;;9.51;54.24;97929.16;4992221;28;20210;-79
2021/01/21 06:06:14;;;;;;;1.50;0.97;;;;;;;9.47;53.70;97945.00;4991791;28;20207;-78
2021/01/21 06:08:41;;;;;;;0.77;0.70;;;;;;;9.45;53.58;97921.66;4987403;28;20323;-78
2021/01/21 06:11:08;;;;;;;2.17;0.90;;;;;;;9.47;54.17;97921.56;4989110;28;20223;-78
2021/01/21 06:13:36;;;;;;;1.53;1.00;;;;;;;9.47;54.18;97911.16;4983494;28;20218;-78
2021/01/21 06:16:05;;;;;;;0.87;0.70;;;;;;;9.49;54.20;97910.16;4990222;28;20206;-77
2021/01/21 06:18:31;;;;;;;0.87;0.87;;;;;;;9.53;54.37;97929.03;4989421;28;20289;-77
2021/01/21 06:20:57;;;;;;;1.73;0.80;;;;;;;9.52;54.26;97938.63;4991839;28;20210;-77
2021/01/21 06:23:24;;;;;;;1.23;0.87;;;;;;;9.57;54.54;97946.19;4982003;28;20210;-78
2021/01/21 06:25:53;;;;;;;1.70;0.70;;;;;;;9.60;54.95;97930.41;4992618;28;20277;-77
2021/01/21 06:28:21;;;;;;;1.37;0.90;;;;;;;9.64;54.52;97920.66;4985802;28;20234;-78
2021/01/21 06:30:51;;;;;;;1.03;0.87;;;;;;;9.63;55.40;97919.81;4993476;28;20205;-77
2021/01/21 06:33:22;;;;;;;1.67;0.90;;;;;;;9.68;55.25;97929.97;4980392;28;20613;-77
2021/01/21 06:35:57;;;;;;;0.90;0.70;;;;;;;9.81;55.02;97906.66;4992660;28;20206;-78
2021/01/21 06:38:30;;;;;;;1.40;0.70;;;;;;;9.93;54.95;97919.03;4980778;28;20712;-78
2021/01/21 06:41:01;;;;;;;1.30;0.63;;;;;;;9.92;55.67;97904.31;4983480;28;20212;-78
2021/01/21 06:43:32;;;;;;;1.63;0.70;;;;;;;9.97;54.69;97930.94;4988891;28;20219;-77
2021/01/21 06:46:00;;;;;;;1.50;0.90;;;;;;;9.98;55.41;97913.53;4974357;28;20213;-77
2021/01/21 06:48:26;;;;;;;1.60;0.80;;;;;;;10.05;55.49;97913.09;4980906;28;20281;-77
2021/01/21 06:50:52;;;;;;;1.90;0.70;;;;;;;10.08;54.94;97899.88;4981861;28;20214;-78
2021/01/21 06:53:19;;;;;;;2.50;0.90;;;;;;;10.11;54.63;97907.53;4976608;28;20450;-77
2021/01/21 06:55:49;;;;;;;0.93;0.87;;;;;;;10.11;55.63;97904.94;4974938;28;20210;-78
2021/01/21 06:58:44;;;;;;;2.47;0.87;;;;;;;10.13;54.70;97944.78;4977921;28;20230;-78
2021/01/21 07:01:43;;;;;;;1.13;0.80;;;;;;;10.22;54.97;97930.34;4978452;28;20213;-78
2021/01/21 07:04:27;;;;;;;0.87;0.73;;;;;;;10.26;55.12;97928.41;4985210;28;20207;-77
2021/01/21 07:07:06;;;;;;;1.33;0.77;;;;;;;10.39;54.19;97926.81;4980162;28;20206;-78
2021/01/21 07:09:33;;;;;;;0.80;0.80;;;;;;;10.38;54.89;97951.19;4980514;28;20236;-78
2021/01/21 07:12:01;;;;;;;1.70;0.70;;;;;;;10.38;55.03;97914.69;4982018;28;20226;-78
2021/01/21 07:14:29;;;;;;;0.97;0.70;;;;;;;10.35;54.47;97948.78;4979107;28;20209;-78
2021/01/21 07:16:57;;;;;;;0.90;0.70;;;;;;;10.33;55.14;97948.88;4980790;28;20199;-77
2021/01/21 07:19:37;;;;;;;1.33;0.70;;;;;;;10.31;55.00;97937.69;4979983;28;20628;-77
2021/01/21 07:22:20;;;;;;;1.13;0.90;;;;;;;10.25;55.68;97950.22;4980371;28;20202;-77
2021/01/21 07:24:57;;;;;;;0.93;0.87;;;;;;;10.22;55.81;97942.56;4983181;28;20243;-77
2021/01/21 07:27:25;;;;;;;1.57;0.70;;;;;;;10.20;56.50;97942.63;4979568;28;20669;-78
2021/01/21 07:30:13;;;;;;;3.50;0.90;;;;;;;10.21;56.60;97956.50;4988762;28;20249;-77
2021/01/21 07:32:40;;;;;;;1.63;0.90;;;;;;;10.36;55.69;97952.22;4983902;28;20254;-78
2021/01/21 07:35:26;;;;;;;0.63;0.53;;;;;;;10.29;56.50;97939.50;4990004;28;20561;-79
2021/01/21 07:37:52;;;;;;;1.33;0.63;;;;;;;10.28;56.64;97948.25;4991257;28;20226;-78
2021/01/21 07:40:18;;;;;;;3.10;0.80;;;;;;;10.27;55.88;97940.53;4986131;28;20290;-78
2021/01/21 07:42:54;;;;;;;0.73;0.63;;;;;;;10.28;56.62;97953.47;4983134;28;20259;-79
2021/01/21 07:45:29;;;;;;;0.97;0.90;;;;;;;10.24;56.74;97936.31;4984013;28;20202;-78
2021/01/21 07:47:58;;;;;;;1.40;0.87;;;;;;;10.20;57.41;97945.25;4984340;28;20731;-77
2021/01/21 07:50:33;;;;;;;1.77;0.80;;;;;;;10.17;57.70;97965.44;4985252;28;20286;-75
2021/01/21 07:53:01;;;;;;;0.70;0.70;;;;;;;10.27;56.70;97980.47;4983924;28;20233;-77
2021/01/21 07:55:28;;;;;;;2.37;0.67;;;;;;;10.34;56.80;97996.63;4984480;28;20203;-77
2021/01/21 07:57:54;;;;;;;0.80;0.80;;;;;;;10.38;57.30;98010.34;4982851;28;20704;-76
2021/01/21 08:00:21;;;;;;;1.67;0.97;;;;;;;10.41;56.88;98046.69;4985884;28;20213;-76
2021/01/21 08:02:48;;;;;;;2.57;0.80;;;;;;;10.39;57.33;98075.47;4987431;28;20207;-77
2021/01/21 08:05:17;;;;;;;0.70;0.70;;;;;;;10.40;57.74;98066.69;4990466;28;20206;-77
2021/01/21 08:07:44;;;;;;;0.60;0.60;;;;;;;10.40;58.34;98078.91;4987844;28;20664;-78
2021/01/21 08:10:10;;;;;;;2.33;0.80;;;;;;;10.33;59.06;98123.56;4990046;28;20210;-77
2021/01/21 08:12:37;;;;;;;0.90;0.43;;;;;;;9.01;65.91;98190.31;4985057;28;20288;-78
2021/01/21 08:15:03;;;;;;;0.30;0.20;;;;;;;7.34;72.53;98222.06;4987818;28;20211;-78
2021/01/21 08:17:29;;;;;;;0.33;0.20;;;;;;;6.81;74.52;98232.84;4988021;28;20217;-77
2021/01/21 08:19:55;;;;;;;0.20;0.20;;;;;;;6.58;75.54;98265.72;4990725;28;20669;-77
2021/01/21 08:22:22;;;;;;;0.30;0.30;;;;;;;6.45;75.92;98256.69;4986443;28;20205;-77
2021/01/21 08:24:57;;;;;;;0.17;0.10;;;;;;;6.46;76.92;98271.31;4988632;28;20216;-77
2021/01/21 08:27:23;;;;;;;0.10;0.10;;;;;;;6.38;74.98;98286.31;4985867;28;20207;-77
2021/01/21 08:29:49;;;;;;;0.60;0.10;;;;;;;6.24;75.04;98273.88;4989090;28;20757;-77
2021/01/21 08:32:15;;;;;;;0.47;0.20;;;;;;;6.09;75.74;98298.59;4986783;28;20690;-78
2021/01/21 08:34:42;;;;;;;0.23;0.20;;;;;;;6.13;75.30;98295.00;4989137;28;20205;-78
2021/01/21 08:37:08;;;;;;;0.40;0.20;;;;;;;6.24;74.91;98302.38;4987982;28;20203;-78
2021/01/21 08:39:36;;;;;;;0.50;0.50;;;;;;;6.39;75.55;98304.41;4991976;28;20698;-77
2021/01/21 08:42:04;;;;;;;0.97;0.40;;;;;;;6.51;74.59;98308.31;4987881;28;20230;-77
2021/01/21 08:44:30;;;;;;;0.73;0.27;;;;;;;6.59;70.88;98311.44;4987601;28;20377;-78
2021/01/21 08:46:57;;;;;;;0.30;0.13;;;;;;;6.72;65.98;98311.84;4984302;28;20289;-78
2021/01/21 08:49:23;;;;;;;0.33;0.10;;;;;;;6.78;66.56;98322.00;4989433;28;20221;-78
2021/01/21 08:52:05;;;;;;;0.30;0.10;;;;;;;6.81;65.80;98324.44;4988706;28;20245;-77
2021/01/21 08:54:31;;;;;;;0.17;0.17;;;;;;;6.78;65.91;98341.88;4988794;28;20209;-77
2021/01/21 08:57:08;;;;;;;0.40;0.10;;;;;;;6.82;65.99;98328.75;4986799;28;20261;-77
2021/01/21 08:59:34;;;;;;;0.67;0.40;;;;;;;6.93;66.38;98333.50;4990779;28;20248;-78
2021/01/21 09:02:01;;;;;;;0.57;0.20;;;;;;;6.95;66.01;98322.16;4986231;28;20201;-77
2021/01/21 09:04:29;;;;;;;0.20;0.20;;;;;;;6.91;66.90;98314.56;4989064;28;20236;-78
2021/01/21 09:06:59;;;;;;;0.73;0.20;;;;;;;6.99;66.76;98301.31;4978791;28;20654;-77
2021/01/21 09:09:30;;;;;;;0.30;0.30;;;;;;;7.09;66.01;98285.31;4987991;28;20233;-79
2021/01/21 09:11:56;;;;;;;0.10;0.10;;;;;;;7.12;65.51;98285.22;4984067;28;20314;-78
2021/01/21 09:14:25;;;;;;;0.13;0.13;;;;;;;7.17;65.92;98295.41;4985448;28;20670;-77
2021/01/21 09:16:53;;;;;;;0.30;0.30;;;;;;;7.33;66.72;98298.22;4982720;28;20228;-79
2021/01/21 09:19:41;;;;;;;0.10;0.10;;;;;;;7.37;66.67;98307.56;4987498;28;20237;-77
2021/01/21 09:22:08;;;;;;;0.20;0.20;;;;;;;7.20;65.18;98303.06;4981580;28;20202;-77
2021/01/21 09:24:35;;;;;;;0.20;0.10;;;;;;;7.22;65.82;98311.63;4981199;28;20253;-77
2021/01/21 09:27:08;;;;;;;0.47;0.40;;;;;;;7.11;65.19;98327.59;4979030;28;20276;-77
2021/01/21 09:29:53;;;;;;;0.20;0.20;;;;;;;7.13;64.77;98325.78;4985731;28;20244;-76
2021/01/21 09:32:19;;;;;;;0.20;0.20;;;;;;;7.03;64.95;98347.81;4981953;28;20220;-76
2021/01/21 09:34:53;;;;;;;0.20;0.20;;;;;;;7.02;65.78;98334.94;4987069;28;20213;-78
2021/01/21 09:37:20;;;;;;;0.30;0.27;;;;;;;7.08;64.68;98345.91;4984429;28;20212;-78
2021/01/21 09:39:46;;;;;;;0.23;0.10;;;;;;;7.11;65.05;98335.38;4989841;28;20222;-79
2021/01/21 09:42:12;;;;;;;0.17;0.17;;;;;;;6.90;63.37;98331.88;4987437;28;20220;-79
2021/01/21 09:44:38;;;;;;;0.40;0.20;;;;;;;6.78;65.02;98321.13;4986799;28;20681;-78
2021/01/21 09:47:04;;;;;;;0.10;0.10;;;;;;;6.83;64.14;98327.81;4986468;28;20206;-78
2021/01/21 09:49:30;;;;;;;0.53;0.20;;;;;;;6.94;65.13;98335.22;4987329;28;20228;-78
2021/01/21 09:51:56;;;;;;;0.20;0.20;;;;;;;7.06;64.45;98329.56;4985909;28;20224;-78
2021/01/21 09:54:22;;;;;;;0.80;0.20;;;;;;;6.86;64.46;98332.91;4987199;28;20679;-78
2021/01/21 09:56:52;;;;;;;1.07;0.20;;;;;;;6.86;63.45;98322.53;4985505;28;20727;-77
2021/01/21 09:59:18;;;;;;;0.83;0.20;;;;;;;6.83;62.44;98314.88;4988682;28;20263;-77
2021/01/21 10:01:44;;;;;;;0.23;0.20;;;;;;;6.89;62.95;98317.22;4985695;28;20200;-78
2021/01/21 10:04:11;;;;;;;0.40;0.23;;;;;;;6.87;62.47;98318.19;4987351;28;20211;-78
2021/01/21 10:06:36;;;;;;;0.20;0.20;;;;;;;6.94;62.75;98322.25;4985487;28;20612;-77
2021/01/21 10:09:02;;;;;;;0.30;0.20;;;;;;;7.00;62.01;98347.94;4987979;28;20258;-77
2021/01/21 10:11:28;;;;;;;0.67;0.30;;;;;;;7.00;62.62;98345.34;4985470;28;20212;-77
2021/01/21 10:13:54;;;;;;;0.47;0.20;;;;;;;6.92;62.96;98350.81;4985915;28;20243;-77
2021/01/21 10:16:20;;;;;;;0.77;0.53;;;;;;;6.95;62.39;98337.72;4985726;28;20675;-78
2021/01/21 10:18:46;;;;;;;0.20;0.10;;;;;;;7.04;61.93;98333.97;4987418;28;20233;-77
2021/01/21 10:21:12;;;;;;;0.50;0.20;;;;;;;7.04;62.77;98323.56;4985628;28;20200;-77
2021/01/21 10:23:38;;;;;;;1.43;0.30;;;;;;;7.01;62.30;98351.38;4984312;28;20208;-78
2021/01/21 10:26:04;;;;;;;0.63;0.20;;;;;;;7.00;61.63;98376.47;4986213;28;20621;-77
2021/01/21 10:28:30;;;;;;;0.10;0.10;;;;;;;7.13;62.75;98356.94;4985453;28;20356;-78
2021/01/21 10:30:56;;;;;;;0.70;0.30;;;;;;;7.18;62.36;98350.75;4987189;28;20204;-78
2021/01/21 10:33:21;;;;;;;0.87;0.10;;;;;;;7.15;62.44;98356.88;4985398;28;20313;-78
2021/01/21 10:35:47;;;;;;;0.73;0.30;;;;;;;7.19;62.04;98355.00;4985003;28;20237;-78
2021/01/21 10:38:14;;;;;;;0.60;0.20;;;;;;;7.24;62.56;98376.44;4986790;28;20308;-78
2021/01/21 10:40:40;;;;;;;0.90;0.30;;;;;;;7.35;62.53;98388.09;4985474;28;20212;-78
2021/01/21 10:43:06;;;;;;;1.00;0.33;;;;;;;7.30;62.01;98387.44;4986425;28;20575;-77
2021/01/21 10:45:33;;;;;;;0.33;0.23;;;;;;;7.09;61.73;98370.09;4984716;28;20213;-78
2021/01/21 10:47:59;;;;;;;1.10;0.50;;;;;;;7.00;59.51;98370.44;4984558;28;20227;-77
2021/01/21 10:50:25;;;;;;;2.20;0.40;;;;;;;7.15;61.44;98370.72;4985861;28;20209;-77
2021/01/21 10:52:50;;;;;;;1.27;0.30;;;;;;;7.17;60.30;98362.84;4983169;28;20234;-77
2021/01/21 10:55:17;;;;;;;0.87;0.37;;;;;;;7.07;61.21;98351.97;4986487;28;20196;-77
2021/01/21 10:57:43;;;;;;;0.50;0.20;;;;;;;7.07;60.71;98353.75;4981911;28;20252;-77
2021/01/21 11:00:10;;;;;;;1.03;0.40;;;;;;;7.26;62.70;98354.72;4986306;28;20295;-77
2021/01/21 11:02:35;;;;;;;0.50;0.20;;;;;;;7.34;62.04;98349.22;4981814;28;20205;-77
2021/01/21 11:05:01;;;;;;;0.40;0.30;;;;;;;7.10;62.60;98348.44;4987071;28;20293;-77
2021/01/21 11:07:27;;;;;;;1.73;0.40;;;;;;;7.05;62.88;98351.19;4984209;28;20213;-77
2021/01/21 11:09:53;;;;;;;0.73;0.50;;;;;;;7.19;63.24;98352.41;4986795;28;20668;-78
2021/01/21 11:12:20;;;;;;;0.90;0.20;;;;;;;7.15;62.13;98343.91;4982714;28;20704;-78
2021/01/21 11:14:53;;;;;;;1.00;0.27;;;;;;;7.17;62.45;98368.03;4987768;28;20206;-77
2021/01/21 11:17:19;;;;;;;0.20;0.20;;;;;;;7.13;62.86;98380.28;4984873;28;20203;-77
2021/01/21 11:19:44;;;;;;;2.17;0.47;;;;;;;7.15;62.52;98380.22;4986621;28;20318;-77
2021/01/21 11:22:10;;;;;;;1.77;0.33;;;;;;;7.20;62.80;98380.91;4984169;28;20202;-78
2021/01/21 11:24:36;;;;;;;1.07;0.40;;;;;;;6.99;61.89;98384.31;4984175;28;20294;-78
2021/01/21 11:27:03;;;;;;;1.53;0.60;;;;;;;6.94;61.81;98387.09;4984542;28;20206;-77
2021/01/21 11:29:29;;;;;;;1.90;0.30;;;;;;;6.89;62.35;98394.19;4986082;28;20609;-76
2021/01/21 11:31:55;;;;;;;0.60;0.40;;;;;;;6.95;63.65;98393.94;4983542;28;20301;-75
2021/01/21 11:34:21;;;;;;;1.10;0.30;;;;;;;7.01;61.90;98395.47;4987033;28;20664;-76
2021/01/21 11:36:47;;;;;;;0.70;0.40;;;;;;;7.08;62.67;98383.97;4990960;28;20208;-75
2021/01/21 11:39:13;;;;;;;0.77;0.20;;;;;;;7.10;63.02;98376.97;4993304;28;20250;-77
2021/01/21 11:41:40;;;;;;;0.50;0.40;;;;;;;7.00;61.66;98370.44;4990768;28;20204;-78
2021/01/21 11:44:06;;;;;;;0.53;0.30;;;;;;;7.10;62.33;98371.78;4993129;28;20732;-77
2021/01/21 11:46:33;;;;;;;1.43;0.60;;;;;;;6.99;62.67;98364.41;4990323;28;20698;-77